Terminal Aerodrome Forecast
Issued by NWS

Current Version | Previous Version | Graphics & Text | Print | Product List | Glossary On
Versions: 1 2 3 4 5 6 7 8 9 10 11 12 13 14 15 16 17 18 19 20
038
FTUS41 KPBZ 211724
TAFHLG
TAF
KHLG 211724Z 2118/2218 VRB03KT P6SM SCT050
     FM220600 00000KT 3SM BR SKC
     FM220700 00000KT 1SM BR SKC
      TEMPO 2208/2212 1/4SM FG VV001
     FM221400 00000KT P6SM SKC
     FM221600 VRB03KT P6SM SCT050=

USA.gov is the U.S. government's official web portal to all federal, state and local government web resources and services.